Groton Long Point, Connecticut
Current Conditions -  °F | °C
As of 4:56 PM on Tuesday 21 Oct 2014 (Local Time) from KGON Reporting Station
Scattered Clouds Scattered Clouds  
Wind Chill: 63°   Ceiling: Unl
Heat Index: 63°   Visibility: 10mi
Dew Point: 54°   Wind: 3mph
Humidity: 72%   Direction: 80°E
Pressure: 29.87"   Gusts: NA
Location:  41.3595°N, 72.0439°W
Report Text: KGON 212056Z 08003KT 10SM FEW090 SCT110 17/12 A2987 RMK AO2 SLP115 T01720122 55002
Loading
Personal Weather Stations






























Interactive Weather Map
Tropical Storm Tracking
New forecast layout! Learn more

10-Day Weather Forecast

Advertisements
Track Severe Weather on mobile